Time;durP1;ratioP1;P1;durP2;ratioP2;P2;SDS_P1;SDS_P2;PMS_P1;PMS_P2;Temp;Humidity;BMP_temperature;BMP_pressure;BME280_temperature;BME280_humidity;BME280_pressure;Samples;Min_cycle;Max_cycle;Signal;HPM_P1;HPM_P2
2021/11/14 00:01:31;;;;;;;58.63;30.27;;;;;;;;;;5115036;28;20382;-75
2021/11/14 00:03:57;;;;;;;56.25;29.65;;;;;;;;;;5096919;28;20042;-75
2021/11/14 00:06:23;;;;;;;58.28;31.17;;;;;;;;;;5115221;28;20194;-73
2021/11/14 00:08:50;;;;;;;55.83;29.27;;;;;;;;;;5115073;28;20039;-75
2021/11/14 00:11:18;;;;;;;61.20;31.42;;;;;;;;;;5115016;28;20474;-75
2021/11/14 00:13:44;;;;;;;54.50;30.67;;;;;;;;;;5114900;28;20099;-75
2021/11/14 00:16:14;;;;;;;52.97;29.08;;;;;;;;;;5114927;28;20279;-75
2021/11/14 00:18:40;;;;;;;55.15;30.90;;;;;;;;;;5114902;28;20059;-76
2021/11/14 00:21:07;;;;;;;53.55;29.52;;;;;;;;;;5096539;28;20020;-75
2021/11/14 00:23:33;;;;;;;55.38;29.45;;;;;;;;;;5115026;28;20020;-75
2021/11/14 00:25:59;;;;;;;54.03;30.05;;;;;;;;;;5096519;28;20031;-75
2021/11/14 00:28:26;;;;;;;59.15;30.33;;;;;;;;;;5114674;28;20471;-76
2021/11/14 00:30:52;;;;;;;55.45;29.67;;;;;;;;;;5096322;28;20521;-75
2021/11/14 00:33:18;;;;;;;55.35;29.77;;;;;;;;;;5096478;28;20516;-75
2021/11/14 00:35:44;;;;;;;55.42;29.92;;;;;;;;;;5114886;28;20107;-76
2021/11/14 00:38:11;;;;;;;53.70;30.02;;;;;;;;;;5095859;28;20086;-75
2021/11/14 00:40:38;;;;;;;57.22;30.70;;;;;;;;;;5114394;28;20020;-75
2021/11/14 00:43:04;;;;;;;56.97;32.00;;;;;;;;;;5096187;28;20054;-76
2021/11/14 00:45:31;;;;;;;54.38;29.90;;;;;;;;;;5096104;28;20012;-75
2021/11/14 00:47:59;;;;;;;59.05;31.80;;;;;;;;;;5114197;28;20055;-74
2021/11/14 00:50:25;;;;;;;56.83;30.33;;;;;;;;;;5114339;28;20228;-75
2021/11/14 00:52:51;;;;;;;56.58;29.63;;;;;;;;;;5095976;28;20043;-75
2021/11/14 00:55:18;;;;;;;53.70;29.02;;;;;;;;;;5114270;28;20084;-75
2021/11/14 00:57:45;;;;;;;59.20;31.23;;;;;;;;;;5113389;28;20550;-76
2021/11/14 01:00:13;;;;;;;57.63;32.17;;;;;;;;;;5095808;28;20055;-75
2021/11/14 01:02:40;;;;;;;60.58;30.98;;;;;;;;;;5114536;28;20030;-74
2021/11/14 01:05:07;;;;;;;56.78;30.48;;;;;;;;;;5114147;28;20027;-75
2021/11/14 01:07:34;;;;;;;53.45;30.35;;;;;;;;;;5114007;28;20378;-75
2021/11/14 01:10:00;;;;;;;59.58;30.80;;;;;;;;;;5113988;27;20503;-76
2021/11/14 01:12:26;;;;;;;60.03;32.22;;;;;;;;;;5113859;28;20030;-75
2021/11/14 01:14:52;;;;;;;59.55;31.10;;;;;;;;;;5113810;28;20015;-75
2021/11/14 01:17:19;;;;;;;57.47;30.17;;;;;;;;;;5113181;28;20036;-76
2021/11/14 01:19:45;;;;;;;60.25;32.88;;;;;;;;;;5113473;28;20031;-76
2021/11/14 01:22:11;;;;;;;63.40;33.28;;;;;;;;;;5095045;28;20020;-72
2021/11/14 01:24:38;;;;;;;62.58;32.20;;;;;;;;;;5113591;28;20076;-75
2021/11/14 01:27:04;;;;;;;64.20;34.50;;;;;;;;;;5113428;28;20024;-76
2021/11/14 01:29:30;;;;;;;57.80;30.95;;;;;;;;;;5113791;28;20084;-75
2021/11/14 01:31:58;;;;;;;60.50;32.33;;;;;;;;;;5113813;28;20016;-73
2021/11/14 01:34:24;;;;;;;63.47;32.95;;;;;;;;;;5113573;28;20031;-73
2021/11/14 01:36:50;;;;;;;69.85;35.45;;;;;;;;;;5113108;28;20035;-73
2021/11/14 01:39:17;;;;;;;68.32;33.92;;;;;;;;;;5113031;28;20043;-75
2021/11/14 01:41:43;;;;;;;71.05;34.30;;;;;;;;;;5094893;28;20023;-75
2021/11/14 01:44:10;;;;;;;64.88;33.83;;;;;;;;;;5113129;28;20015;-72
2021/11/14 01:46:36;;;;;;;74.40;35.70;;;;;;;;;;5094936;28;20369;-74
2021/11/14 01:49:03;;;;;;;68.80;34.10;;;;;;;;;;5094750;28;20027;-74
2021/11/14 01:51:29;;;;;;;70.82;34.85;;;;;;;;;;5113014;28;20060;-76
2021/11/14 01:53:55;;;;;;;76.65;37.20;;;;;;;;;;5112783;28;20020;-75
2021/11/14 01:56:22;;;;;;;73.72;36.50;;;;;;;;;;5094738;28;20027;-76
2021/11/14 01:58:48;;;;;;;72.82;35.88;;;;;;;;;;5113098;28;20028;-75
2021/11/14 02:01:17;;;;;;;70.07;35.80;;;;;;;;;;5112778;28;20019;-75
2021/11/14 02:03:47;;;;;;;76.28;36.28;;;;;;;;;;5112751;28;20098;-71
2021/11/14 02:06:13;;;;;;;73.97;34.85;;;;;;;;;;5112932;28;20016;-75
2021/11/14 02:08:41;;;;;;;73.78;36.30;;;;;;;;;;5094095;28;20030;-73
2021/11/14 02:11:09;;;;;;;73.93;35.90;;;;;;;;;;5112921;28;20019;-74
2021/11/14 02:13:35;;;;;;;73.97;34.88;;;;;;;;;;5094359;28;20034;-69
2021/11/14 02:16:01;;;;;;;74.15;36.08;;;;;;;;;;5112742;28;20182;-72
2021/11/14 02:18:27;;;;;;;74.95;36.10;;;;;;;;;;5112597;28;20043;-73
2021/11/14 02:20:54;;;;;;;78.15;38.33;;;;;;;;;;5112598;28;20027;-73
2021/11/14 02:23:21;;;;;;;73.40;36.65;;;;;;;;;;5112377;28;20125;-75
2021/11/14 02:25:48;;;;;;;76.38;37.00;;;;;;;;;;5094145;28;20035;-75
2021/11/14 02:28:15;;;;;;;71.50;35.70;;;;;;;;;;5094176;28;20027;-74
2021/11/14 02:30:41;;;;;;;79.30;38.50;;;;;;;;;;5112485;28;20023;-75
2021/11/14 02:33:07;;;;;;;77.20;36.92;;;;;;;;;;5112462;28;20474;-74
2021/11/14 02:35:34;;;;;;;73.88;36.33;;;;;;;;;;5112280;28;20031;-75
2021/11/14 02:38:03;;;;;;;72.15;35.38;;;;;;;;;;5112111;28;20142;-75
2021/11/14 02:40:29;;;;;;;73.63;35.90;;;;;;;;;;5112179;28;20409;-73
2021/11/14 02:42:55;;;;;;;71.50;35.47;;;;;;;;;;5112182;28;20059;-75
2021/11/14 02:45:23;;;;;;;74.53;36.30;;;;;;;;;;5112178;28;20031;-74
2021/11/14 02:47:49;;;;;;;73.20;36.35;;;;;;;;;;5093790;28;20027;-73
2021/11/14 02:50:16;;;;;;;77.25;36.80;;;;;;;;;;5112184;28;20015;-74
2021/11/14 02:52:42;;;;;;;77.25;38.20;;;;;;;;;;5112110;28;20026;-73
2021/11/14 02:55:10;;;;;;;71.57;37.70;;;;;;;;;;5093773;28;20023;-74
2021/11/14 02:57:36;;;;;;;78.43;36.60;;;;;;;;;;5093662;28;20403;-75
2021/11/14 03:00:05;;;;;;;75.65;37.47;;;;;;;;;;5112077;28;20068;-75
2021/11/14 03:02:31;;;;;;;76.97;37.75;;;;;;;;;;5093511;28;20428;-74
2021/11/14 03:04:57;;;;;;;78.03;38.63;;;;;;;;;;5111715;28;20718;-74
2021/11/14 03:07:23;;;;;;;76.00;37.10;;;;;;;;;;5111702;28;20024;-71
2021/11/14 03:09:49;;;;;;;79.13;37.20;;;;;;;;;;5111625;28;20014;-74
2021/11/14 03:12:15;;;;;;;76.32;37.25;;;;;;;;;;5111671;28;20023;-74
2021/11/14 03:14:41;;;;;;;78.75;37.00;;;;;;;;;;5111751;28;20024;-74
2021/11/14 03:17:07;;;;;;;75.28;36.33;;;;;;;;;;5111875;28;20416;-74
2021/11/14 03:19:33;;;;;;;76.60;37.03;;;;;;;;;;5112221;28;20024;-75
2021/11/14 03:21:59;;;;;;;77.80;37.70;;;;;;;;;;5114855;28;20103;-75
2021/11/14 03:24:25;;;;;;;76.35;36.80;;;;;;;;;;5116040;28;20030;-74
2021/11/14 03:26:52;;;;;;;78.30;36.03;;;;;;;;;;5115940;28;20027;-72
2021/11/14 03:29:18;;;;;;;80.10;38.83;;;;;;;;;;5097572;28;20382;-72
2021/11/14 03:31:46;;;;;;;76.00;37.08;;;;;;;;;;5097463;28;20024;-74
2021/11/14 03:34:12;;;;;;;79.95;37.05;;;;;;;;;;5117405;28;20012;-74
2021/11/14 03:36:38;;;;;;;78.30;37.15;;;;;;;;;;5117131;28;20106;-74
2021/11/14 03:39:05;;;;;;;78.00;37.50;;;;;;;;;;5117002;28;20101;-72
2021/11/14 03:41:35;;;;;;;78.80;37.67;;;;;;;;;;5117129;28;20088;-75
2021/11/14 03:44:01;;;;;;;76.85;36.45;;;;;;;;;;5116886;28;20031;-74
2021/11/14 03:46:27;;;;;;;80.07;38.33;;;;;;;;;;5115653;28;20024;-74
2021/11/14 03:48:55;;;;;;;72.00;36.30;;;;;;;;;;5115498;28;20080;-75
2021/11/14 03:51:23;;;;;;;78.78;38.22;;;;;;;;;;5115609;28;20506;-75
2021/11/14 03:53:49;;;;;;;73.88;35.75;;;;;;;;;;5115475;28;20034;-73
2021/11/14 03:56:16;;;;;;;76.18;34.88;;;;;;;;;;5097168;28;20504;-74
2021/11/14 03:58:43;;;;;;;76.82;36.05;;;;;;;;;;5096971;28;20065;-73
2021/11/14 04:01:10;;;;;;;78.25;37.08;;;;;;;;;;5115265;28;20019;-74
2021/11/14 04:03:37;;;;;;;75.95;35.17;;;;;;;;;;5115163;28;20056;-74
2021/11/14 04:06:03;;;;;;;69.50;35.60;;;;;;;;;;5115057;28;20019;-74
2021/11/14 04:08:29;;;;;;;74.85;36.03;;;;;;;;;;5096540;28;20030;-74
2021/11/14 04:10:56;;;;;;;68.38;34.03;;;;;;;;;;5115250;28;20024;-73
2021/11/14 04:13:23;;;;;;;77.70;36.72;;;;;;;;;;5114907;28;20023;-74
2021/11/14 04:15:49;;;;;;;72.40;35.80;;;;;;;;;;5096746;28;20110;-75
2021/11/14 04:18:16;;;;;;;71.15;34.00;;;;;;;;;;5114896;28;20067;-75
2021/11/14 04:20:43;;;;;;;71.97;36.22;;;;;;;;;;5096972;28;20019;-74
2021/11/14 04:23:11;;;;;;;77.07;35.97;;;;;;;;;;5096536;28;20030;-74
2021/11/14 04:25:37;;;;;;;72.63;34.97;;;;;;;;;;5114962;28;20015;-73
2021/11/14 04:28:05;;;;;;;72.35;35.78;;;;;;;;;;5114831;28;20024;-74
2021/11/14 04:30:32;;;;;;;67.18;33.95;;;;;;;;;;5114782;28;20348;-75
2021/11/14 04:32:58;;;;;;;64.53;34.60;;;;;;;;;;5095135;28;20486;-75
2021/11/14 04:35:24;;;;;;;65.93;34.13;;;;;;;;;;5114590;28;20043;-74
2021/11/14 04:37:51;;;;;;;69.53;33.00;;;;;;;;;;5113937;28;20050;-74
2021/11/14 04:40:19;;;;;;;65.75;33.08;;;;;;;;;;5114399;28;20412;-74
2021/11/14 04:42:45;;;;;;;66.93;32.95;;;;;;;;;;5114319;28;20051;-73
2021/11/14 04:45:11;;;;;;;69.22;35.08;;;;;;;;;;5114464;28;20023;-74
2021/11/14 04:47:37;;;;;;;66.88;34.30;;;;;;;;;;5114311;28;20110;-72
2021/11/14 04:50:05;;;;;;;68.50;34.05;;;;;;;;;;5114433;28;20023;-73
2021/11/14 04:52:31;;;;;;;62.80;31.83;;;;;;;;;;5114331;28;20145;-73
2021/11/14 04:54:57;;;;;;;66.60;34.05;;;;;;;;;;5114375;28;20088;-76
2021/11/14 04:57:24;;;;;;;65.38;33.65;;;;;;;;;;5114190;28;20372;-74
2021/11/14 04:59:50;;;;;;;63.72;32.30;;;;;;;;;;5114219;28;20047;-75
2021/11/14 05:02:16;;;;;;;62.83;30.73;;;;;;;;;;5114352;28;20031;-75
2021/11/14 05:04:42;;;;;;;57.90;31.55;;;;;;;;;;5114150;28;20098;-75
2021/11/14 05:07:09;;;;;;;63.33;32.38;;;;;;;;;;5114041;28;20026;-75
2021/11/14 05:09:35;;;;;;;66.53;32.50;;;;;;;;;;5114059;28;20088;-74
2021/11/14 05:12:01;;;;;;;59.38;30.90;;;;;;;;;;5113979;28;20023;-74
2021/11/14 05:14:27;;;;;;;59.22;31.13;;;;;;;;;;5095557;28;20027;-74
2021/11/14 05:16:53;;;;;;;58.60;30.55;;;;;;;;;;5113578;28;20527;-73
2021/11/14 05:19:19;;;;;;;60.42;32.05;;;;;;;;;;5113643;28;20592;-75
2021/11/14 05:21:45;;;;;;;62.47;31.23;;;;;;;;;;5113731;28;20490;-74
2021/11/14 05:24:11;;;;;;;58.65;30.80;;;;;;;;;;5113697;28;20072;-72
2021/11/14 05:26:37;;;;;;;54.28;30.13;;;;;;;;;;5113584;28;20081;-69
2021/11/14 05:29:04;;;;;;;60.03;31.52;;;;;;;;;;5113601;28;20055;-72
2021/11/14 05:31:30;;;;;;;57.75;30.40;;;;;;;;;;5095568;28;20023;-73
2021/11/14 05:33:56;;;;;;;60.60;31.75;;;;;;;;;;5095218;28;20060;-74
2021/11/14 05:36:23;;;;;;;60.40;30.42;;;;;;;;;;5113344;28;20034;-74
2021/11/14 05:38:50;;;;;;;60.65;31.67;;;;;;;;;;5113265;28;20456;-73
2021/11/14 05:41:16;;;;;;;55.75;29.63;;;;;;;;;;5113457;28;20570;-75
2021/11/14 05:43:42;;;;;;;60.70;31.10;;;;;;;;;;5112958;28;20028;-74
2021/11/14 05:46:08;;;;;;;59.20;29.30;;;;;;;;;;5113279;28;20043;-70
2021/11/14 05:48:34;;;;;;;58.65;28.38;;;;;;;;;;5113118;28;20228;-74
2021/11/14 05:51:00;;;;;;;53.75;28.85;;;;;;;;;;5113211;28;20028;-74
2021/11/14 05:53:27;;;;;;;58.47;29.27;;;;;;;;;;5113107;28;20375;-75
2021/11/14 05:55:53;;;;;;;58.25;29.27;;;;;;;;;;5113189;28;20034;-73
2021/11/14 06:01:16;;;;;;;59.10;29.88;;;;;;;;;;5081020;28;20047;-75
2021/11/14 06:04:10;;;;;;;59.45;30.48;;;;;;;;;;5094424;28;20089;-75
2021/11/14 06:06:28;;;;;;;60.97;30.60;;;;;;;;;;5111818;28;20122;-75
2021/11/14 06:08:54;;;;;;;62.10;31.15;;;;;;;;;;5094602;28;20024;-75
2021/11/14 06:11:23;;;;;;;55.72;29.13;;;;;;;;;;5112822;28;20019;-74
2021/11/14 06:13:49;;;;;;;59.88;30.48;;;;;;;;;;5094520;28;20024;-74
2021/11/14 06:16:15;;;;;;;61.72;29.85;;;;;;;;;;5112560;28;20026;-73
2021/11/14 06:18:41;;;;;;;57.45;29.67;;;;;;;;;;5112787;28;20031;-74
2021/11/14 06:21:07;;;;;;;61.05;30.20;;;;;;;;;;5112529;28;20134;-74
2021/11/14 06:23:33;;;;;;;55.05;28.17;;;;;;;;;;5112919;28;20035;-74
2021/11/14 06:25:59;;;;;;;54.60;28.27;;;;;;;;;;5112922;28;20019;-72
2021/11/14 06:28:26;;;;;;;61.58;30.83;;;;;;;;;;5094230;28;20115;-69
2021/11/14 06:30:52;;;;;;;59.38;29.13;;;;;;;;;;5112562;28;20504;-74
2021/11/14 06:33:18;;;;;;;57.78;29.33;;;;;;;;;;5112434;28;20027;-74
2021/11/14 06:35:44;;;;;;;55.83;29.00;;;;;;;;;;5112499;28;20019;-74
2021/11/14 06:38:10;;;;;;;54.58;28.85;;;;;;;;;;5112056;28;20068;-73
2021/11/14 06:40:36;;;;;;;55.33;29.20;;;;;;;;;;5093919;28;20016;-74
2021/11/14 06:43:03;;;;;;;58.42;29.02;;;;;;;;;;5112301;28;20054;-74
2021/11/14 06:45:29;;;;;;;56.58;29.63;;;;;;;;;;5093912;28;20015;-72
2021/11/14 06:47:55;;;;;;;53.83;27.75;;;;;;;;;;5112191;28;20019;-74
2021/11/14 06:50:21;;;;;;;56.33;29.98;;;;;;;;;;5112203;28;20023;-75
2021/11/14 06:52:47;;;;;;;53.83;26.40;;;;;;;;;;5112075;28;20698;-73
2021/11/14 06:55:14;;;;;;;50.53;26.85;;;;;;;;;;5111860;28;20510;-74
2021/11/14 06:57:41;;;;;;;56.70;29.75;;;;;;;;;;5111871;28;20032;-72
2021/11/14 07:00:08;;;;;;;49.25;26.55;;;;;;;;;;5111933;28;20102;-74
2021/11/14 07:02:34;;;;;;;48.33;25.85;;;;;;;;;;5111852;28;20008;-74
2021/11/14 07:05:00;;;;;;;49.58;26.30;;;;;;;;;;5111961;28;20038;-74
2021/11/14 07:07:26;;;;;;;46.10;23.58;;;;;;;;;;5111953;28;20027;-73
2021/11/14 07:09:52;;;;;;;43.85;22.40;;;;;;;;;;5112086;28;20020;-67
2021/11/14 07:12:20;;;;;;;39.00;22.23;;;;;;;;;;5111987;28;20550;-74
2021/11/14 07:14:47;;;;;;;40.85;22.52;;;;;;;;;;5093729;28;20012;-73
2021/11/14 07:17:15;;;;;;;41.65;22.20;;;;;;;;;;5111741;28;20026;-73
2021/11/14 07:19:41;;;;;;;40.47;21.83;;;;;;;;;;5111926;28;20019;-70
2021/11/14 07:22:07;;;;;;;38.63;20.38;;;;;;;;;;5111883;28;20019;-70
2021/11/14 07:24:33;;;;;;;36.30;19.23;;;;;;;;;;5093490;28;20035;-73
2021/11/14 07:26:59;;;;;;;38.88;20.33;;;;;;;;;;5112170;28;20038;-69
2021/11/14 07:29:25;;;;;;;38.85;21.77;;;;;;;;;;5111885;28;20593;-74
2021/11/14 07:31:51;;;;;;;38.28;20.13;;;;;;;;;;5111669;28;20034;-73
2021/11/14 07:34:18;;;;;;;38.17;21.40;;;;;;;;;;5111746;28;20015;-74
2021/11/14 07:36:44;;;;;;;34.08;20.50;;;;;;;;;;5111670;28;20032;-73
2021/11/14 07:39:10;;;;;;;39.33;21.08;;;;;;;;;;5093336;28;20043;-75
2021/11/14 07:41:36;;;;;;;38.15;20.60;;;;;;;;;;5111713;28;20103;-74
2021/11/14 07:44:02;;;;;;;36.55;20.88;;;;;;;;;;5111779;28;20478;-69
2021/11/14 07:46:28;;;;;;;37.33;19.45;;;;;;;;;;5093209;28;20020;-74
2021/11/14 07:48:55;;;;;;;39.20;21.00;;;;;;;;;;5093373;28;20030;-75
2021/11/14 07:51:21;;;;;;;36.55;19.80;;;;;;;;;;5111650;28;20011;-71
2021/11/14 07:53:47;;;;;;;32.10;17.85;;;;;;;;;;5111631;28;20031;-74
2021/11/14 07:56:14;;;;;;;29.05;17.05;;;;;;;;;;5111556;28;20375;-73
2021/11/14 07:58:40;;;;;;;33.13;19.20;;;;;;;;;;5111454;28;20085;-74
2021/11/14 08:01:06;;;;;;;38.22;20.98;;;;;;;;;;5111436;28;20106;-74
2021/11/14 08:03:32;;;;;;;34.15;19.30;;;;;;;;;;5111421;28;20046;-75
2021/11/14 08:06:02;;;;;;;35.55;19.73;;;;;;;;;;5111363;28;20103;-77
2021/11/14 08:08:28;;;;;;;35.65;20.50;;;;;;;;;;5096168;28;20072;-72
2021/11/14 08:10:54;;;;;;;32.63;17.80;;;;;;;;;;5115102;28;20020;-74
2021/11/14 08:13:21;;;;;;;38.65;21.40;;;;;;;;;;5096743;28;20015;-75
2021/11/14 08:15:47;;;;;;;36.15;20.13;;;;;;;;;;5115016;28;20023;-73
2021/11/14 08:18:14;;;;;;;34.15;18.77;;;;;;;;;;5114899;28;20042;-70
2021/11/14 08:20:40;;;;;;;30.40;18.52;;;;;;;;;;5114779;28;20538;-74
2021/11/14 08:23:07;;;;;;;33.28;19.08;;;;;;;;;;5114585;28;20016;-74
2021/11/14 08:25:33;;;;;;;35.30;20.30;;;;;;;;;;5114751;28;20016;-74
2021/11/14 08:27:59;;;;;;;30.90;18.65;;;;;;;;;;5114788;28;20030;-74
2021/11/14 08:30:26;;;;;;;32.20;17.60;;;;;;;;;;5114689;28;20375;-74
2021/11/14 08:32:52;;;;;;;30.05;17.13;;;;;;;;;;5114565;28;20144;-72
2021/11/14 08:35:19;;;;;;;31.80;18.45;;;;;;;;;;5114430;28;20015;-74
2021/11/14 08:37:46;;;;;;;31.05;18.17;;;;;;;;;;5114186;28;20039;-73
2021/11/14 08:40:13;;;;;;;31.83;18.88;;;;;;;;;;5114647;28;20038;-73
2021/11/14 08:42:39;;;;;;;33.58;19.30;;;;;;;;;;5114514;28;20055;-73
2021/11/14 08:45:06;;;;;;;30.73;18.33;;;;;;;;;;5114582;28;20116;-72
2021/11/14 08:47:32;;;;;;;29.40;17.58;;;;;;;;;;5114378;28;20592;-71
2021/11/14 08:49:58;;;;;;;31.13;17.25;;;;;;;;;;5114426;28;20097;-71
2021/11/14 08:52:25;;;;;;;30.45;18.20;;;;;;;;;;5114439;28;20016;-75
2021/11/14 08:54:51;;;;;;;32.15;16.92;;;;;;;;;;5114367;28;20058;-73
2021/11/14 08:57:18;;;;;;;29.15;17.55;;;;;;;;;;5114153;28;20032;-74
2021/11/14 08:59:45;;;;;;;29.40;16.50;;;;;;;;;;5096301;28;20458;-73
2021/11/14 09:02:12;;;;;;;28.63;16.88;;;;;;;;;;5095919;28;20031;-70
2021/11/14 09:04:38;;;;;;;29.88;17.88;;;;;;;;;;5095657;28;20014;-74
2021/11/14 09:07:04;;;;;;;28.40;17.33;;;;;;;;;;5113980;28;20027;-73
2021/11/14 09:09:30;;;;;;;26.88;16.10;;;;;;;;;;5095641;28;20076;-74
2021/11/14 09:11:57;;;;;;;33.42;18.15;;;;;;;;;;5113989;28;20019;-73
2021/11/14 09:14:23;;;;;;;31.13;17.73;;;;;;;;;;5113968;28;20424;-73
2021/11/14 09:16:53;;;;;;;29.10;17.02;;;;;;;;;;5113699;28;20027;-72
2021/11/14 09:19:20;;;;;;;29.20;16.23;;;;;;;;;;5113567;28;20489;-74
2021/11/14 09:21:46;;;;;;;26.42;16.73;;;;;;;;;;5095617;28;20055;-73
2021/11/14 09:24:12;;;;;;;30.80;17.13;;;;;;;;;;5113779;28;20546;-70
2021/11/14 09:26:39;;;;;;;29.17;17.25;;;;;;;;;;5113803;28;20034;-74
2021/11/14 09:29:06;;;;;;;28.33;16.92;;;;;;;;;;5095391;28;20028;-74
2021/11/14 09:31:32;;;;;;;27.23;16.45;;;;;;;;;;5113626;28;20023;-71
2021/11/14 09:33:59;;;;;;;27.85;16.95;;;;;;;;;;5113559;28;20081;-74
2021/11/14 09:36:31;;;;;;;29.25;16.65;;;;;;;;;;5095127;28;20020;-74
2021/11/14 09:39:00;;;;;;;29.60;17.93;;;;;;;;;;5113273;28;20040;-71
2021/11/14 09:41:27;;;;;;;27.65;16.77;;;;;;;;;;5095188;28;20055;-74
2021/11/14 09:43:54;;;;;;;30.10;17.15;;;;;;;;;;5113453;28;20020;-75
2021/11/14 09:46:20;;;;;;;29.35;17.33;;;;;;;;;;5113366;28;20417;-74
2021/11/14 09:48:47;;;;;;;28.20;17.45;;;;;;;;;;5113171;28;20015;-75
2021/11/14 09:51:13;;;;;;;30.15;17.63;;;;;;;;;;5113140;28;20059;-73
2021/11/14 09:53:39;;;;;;;26.98;16.80;;;;;;;;;;5112956;28;20023;-71
2021/11/14 09:56:06;;;;;;;28.55;16.38;;;;;;;;;;5112873;28;20055;-70
2021/11/14 09:58:32;;;;;;;26.23;16.42;;;;;;;;;;5112945;28;20070;-74
2021/11/14 10:00:58;;;;;;;29.85;16.63;;;;;;;;;;5113254;28;20058;-73
2021/11/14 10:03:24;;;;;;;25.70;15.57;;;;;;;;;;5113040;28;20024;-74
2021/11/14 10:05:51;;;;;;;26.95;16.20;;;;;;;;;;5113018;28;20075;-74
2021/11/14 10:08:19;;;;;;;26.40;16.17;;;;;;;;;;5112883;28;20023;-75
2021/11/14 10:10:45;;;;;;;26.65;16.60;;;;;;;;;;5112910;28;20020;-70
2021/11/14 10:13:13;;;;;;;28.48;17.45;;;;;;;;;;5094545;28;20046;-74
2021/11/14 10:15:39;;;;;;;28.83;17.58;;;;;;;;;;5112773;28;20027;-73
2021/11/14 10:18:06;;;;;;;26.98;16.05;;;;;;;;;;5112370;28;20027;-73
2021/11/14 10:20:35;;;;;;;28.15;16.63;;;;;;;;;;5112619;28;20011;-74
2021/11/14 10:23:13;;;;;;;28.60;16.67;;;;;;;;;;5112640;28;20024;-73
2021/11/14 10:25:40;;;;;;;26.83;16.02;;;;;;;;;;5112431;28;20020;-74
2021/11/14 10:28:06;;;;;;;26.02;16.20;;;;;;;;;;5112168;28;20084;-73
2021/11/14 10:30:34;;;;;;;27.13;17.02;;;;;;;;;;5093130;28;20024;-74
2021/11/14 10:33:02;;;;;;;26.58;15.93;;;;;;;;;;5094272;28;20159;-75
2021/11/14 10:35:29;;;;;;;27.30;16.48;;;;;;;;;;5112668;28;20015;-73
2021/11/14 10:37:58;;;;;;;27.80;16.58;;;;;;;;;;5111884;28;20051;-74
2021/11/14 10:40:28;;;;;;;26.33;15.68;;;;;;;;;;5112321;28;20023;-75
2021/11/14 10:42:56;;;;;;;26.88;15.90;;;;;;;;;;5112201;28;20020;-74
2021/11/14 10:45:22;;;;;;;27.80;16.15;;;;;;;;;;5112221;28;20485;-74
2021/11/14 10:47:59;;;;;;;25.70;15.30;;;;;;;;;;5112149;28;20406;-74
2021/11/14 10:50:28;;;;;;;27.15;15.95;;;;;;;;;;5112206;28;20446;-74
2021/11/14 10:52:59;;;;;;;23.80;15.30;;;;;;;;;;5093732;28;20030;-73
2021/11/14 10:55:26;;;;;;;24.85;15.77;;;;;;;;;;5093939;28;20111;-74
2021/11/14 10:57:52;;;;;;;29.10;15.80;;;;;;;;;;5093444;28;20037;-74
2021/11/14 11:00:19;;;;;;;26.33;15.98;;;;;;;;;;5112061;28;20024;-74
2021/11/14 11:02:46;;;;;;;25.33;15.60;;;;;;;;;;5111892;28;20098;-71
2021/11/14 11:05:20;;;;;;;26.27;15.02;;;;;;;;;;5093836;28;20047;-74
2021/11/14 11:08:12;;;;;;;26.52;15.57;;;;;;;;;;5112038;28;20053;-71
2021/11/14 11:10:47;;;;;;;23.73;15.47;;;;;;;;;;5107583;28;20410;-71
2021/11/14 11:13:15;;;;;;;26.58;16.25;;;;;;;;;;5111942;28;20258;-73
2021/11/14 11:15:41;;;;;;;25.20;15.48;;;;;;;;;;5112274;28;20036;-74
2021/11/14 11:18:07;;;;;;;27.65;16.15;;;;;;;;;;5093490;28;20482;-74
2021/11/14 11:20:34;;;;;;;22.90;14.77;;;;;;;;;;5093578;28;20028;-70
2021/11/14 11:23:03;;;;;;;25.08;15.07;;;;;;;;;;5111670;28;20028;-73
2021/11/14 11:25:41;;;;;;;25.77;15.43;;;;;;;;;;5093527;28;20027;-74
2021/11/14 11:28:09;;;;;;;25.02;15.75;;;;;;;;;;5111722;28;20546;-74
2021/11/14 11:30:39;;;;;;;24.20;15.40;;;;;;;;;;5111819;28;20559;-73
2021/11/14 11:33:05;;;;;;;24.17;14.80;;;;;;;;;;5093486;28;20031;-74
2021/11/14 11:35:31;;;;;;;22.50;14.57;;;;;;;;;;5111767;28;20379;-72
2021/11/14 11:37:58;;;;;;;25.00;14.98;;;;;;;;;;5111473;28;20066;-73
2021/11/14 11:40:24;;;;;;;25.67;15.63;;;;;;;;;;5111710;28;20027;-74
2021/11/14 11:42:51;;;;;;;26.08;15.43;;;;;;;;;;5096138;28;20047;-74
2021/11/14 11:45:25;;;;;;;23.70;14.90;;;;;;;;;;5115692;28;20022;-75
2021/11/14 11:47:53;;;;;;;26.15;15.98;;;;;;;;;;5097368;28;20019;-74
2021/11/14 11:50:23;;;;;;;24.85;14.85;;;;;;;;;;5115662;28;20475;-73
2021/11/14 11:52:49;;;;;;;24.63;15.52;;;;;;;;;;5115644;28;20048;-70
2021/11/14 11:55:33;;;;;;;24.95;15.68;;;;;;;;;;5115538;28;20031;-75
2021/11/14 11:58:10;;;;;;;24.15;15.00;;;;;;;;;;5115378;28;20039;-73
2021/11/14 12:00:47;;;;;;;22.88;14.05;;;;;;;;;;5115404;28;20528;-74
2021/11/14 12:03:23;;;;;;;25.13;15.35;;;;;;;;;;5096970;28;20084;-75
2021/11/14 12:05:49;;;;;;;27.40;15.57;;;;;;;;;;5115261;28;20022;-75
2021/11/14 12:08:15;;;;;;;25.05;14.98;;;;;;;;;;5096946;28;20019;-74
2021/11/14 12:10:42;;;;;;;24.90;14.77;;;;;;;;;;5115239;28;20084;-75
2021/11/14 12:13:08;;;;;;;26.63;16.25;;;;;;;;;;5115045;28;20024;-75
2021/11/14 12:15:35;;;;;;;27.50;15.70;;;;;;;;;;5115132;28;20474;-76
2021/11/14 12:18:04;;;;;;;27.13;16.00;;;;;;;;;;5115018;28;20031;-74
2021/11/14 12:20:35;;;;;;;29.15;16.88;;;;;;;;;;5115048;28;20058;-75
2021/11/14 12:23:05;;;;;;;23.98;14.95;;;;;;;;;;5114876;28;20019;-74
2021/11/14 12:25:34;;;;;;;25.98;15.98;;;;;;;;;;5096548;28;20016;-73
2021/11/14 12:28:02;;;;;;;25.45;15.90;;;;;;;;;;5096415;28;20039;-75
2021/11/14 12:30:29;;;;;;;24.38;14.55;;;;;;;;;;5096523;28;20024;-73
2021/11/14 12:32:56;;;;;;;26.17;15.95;;;;;;;;;;5114802;28;20024;-74
2021/11/14 12:35:25;;;;;;;25.23;15.57;;;;;;;;;;5114583;28;20093;-68
2021/11/14 12:37:53;;;;;;;27.83;16.20;;;;;;;;;;5114425;28;20583;-71
2021/11/14 12:40:22;;;;;;;27.02;15.65;;;;;;;;;;5114626;28;20031;-74
2021/11/14 12:42:51;;;;;;;23.83;14.40;;;;;;;;;;5114544;28;20023;-73
2021/11/14 12:45:18;;;;;;;26.30;15.50;;;;;;;;;;5096262;28;20110;-70
2021/11/14 12:47:46;;;;;;;30.33;16.60;;;;;;;;;;5114546;28;20020;-74
2021/11/14 12:50:17;;;;;;;25.35;15.82;;;;;;;;;;5114520;28;20090;-71
2021/11/14 12:52:45;;;;;;;29.42;16.85;;;;;;;;;;5114154;28;20030;-74
2021/11/14 12:55:16;;;;;;;26.05;16.38;;;;;;;;;;5113439;28;20965;-74
2021/11/14 12:57:52;;;;;;;27.20;16.23;;;;;;;;;;5096022;28;20039;-73
2021/11/14 13:00:35;;;;;;;25.48;15.82;;;;;;;;;;5114289;28;20024;-69
2021/11/14 13:03:01;;;;;;;;;;;;;;;;;;5096222;28;20545;-69
2021/11/14 13:05:28;;;;;;;24.42;14.38;;;;;;;;;;5114125;28;19994;-69
2021/11/14 13:08:02;;;;;;;26.13;15.90;;;;;;;;;;5113899;28;20036;-75
2021/11/14 13:10:31;;;;;;;24.23;15.02;;;;;;;;;;5114136;28;20048;-69
2021/11/14 13:12:57;;;;;;;26.15;15.98;;;;;;;;;;5113984;28;20061;-73
2021/11/14 13:15:23;;;;;;;24.40;14.88;;;;;;;;;;5095578;28;20077;-70
2021/11/14 13:17:55;;;;;;;27.45;16.55;;;;;;;;;;5114087;28;20045;-75
2021/11/14 13:20:23;;;;;;;27.20;16.10;;;;;;;;;;5113935;28;20015;-74
2021/11/14 13:22:51;;;;;;;26.15;16.05;;;;;;;;;;5095384;28;20521;-70
2021/11/14 13:25:37;;;;;;;28.17;16.98;;;;;;;;;;5113518;28;20023;-75
2021/11/14 13:28:03;;;;;;;28.20;16.25;;;;;;;;;;5095076;28;20607;-74
2021/11/14 13:30:29;;;;;;;28.55;17.17;;;;;;;;;;5113687;28;20069;-68
2021/11/14 13:32:58;;;;;;;25.63;15.10;;;;;;;;;;5114038;28;20058;-73
2021/11/14 13:35:24;;;;;;;29.73;17.75;;;;;;;;;;5113572;28;20087;-72
2021/11/14 13:37:50;;;;;;;28.55;15.75;;;;;;;;;;5112968;28;20514;-74
2021/11/14 13:40:21;;;;;;;25.33;15.45;;;;;;;;;;5113279;28;20463;-70
2021/11/14 13:42:47;;;;;;;25.45;15.48;;;;;;;;;;5113588;28;20051;-75
2021/11/14 13:45:13;;;;;;;24.67;15.05;;;;;;;;;;5095076;28;20043;-71
2021/11/14 13:47:49;;;;;;;25.48;15.25;;;;;;;;;;5113362;28;20100;-72
2021/11/14 13:50:22;;;;;;;23.13;15.27;;;;;;;;;;5095028;28;20490;-68
2021/11/14 13:52:52;;;;;;;24.38;15.43;;;;;;;;;;5113486;28;20028;-71
2021/11/14 13:55:18;;;;;;;24.73;15.48;;;;;;;;;;5113210;28;20016;-74
2021/11/14 13:57:46;;;;;;;22.80;14.15;;;;;;;;;;5112915;28;20066;-74
2021/11/14 14:00:18;;;;;;;26.60;16.08;;;;;;;;;;5113045;28;20478;-69
2021/11/14 14:02:44;;;;;;;24.38;15.40;;;;;;;;;;5094948;28;20115;-75
2021/11/14 14:05:11;;;;;;;24.55;15.70;;;;;;;;;;5112892;28;20034;-69
2021/11/14 14:07:41;;;;;;;26.65;15.40;;;;;;;;;;5112824;28;20385;-73
2021/11/14 14:10:07;;;;;;;24.42;15.05;;;;;;;;;;5113005;28;20019;-74
2021/11/14 14:12:35;;;;;;;23.70;14.63;;;;;;;;;;5112716;28;20486;-68
2021/11/14 14:15:03;;;;;;;26.25;15.98;;;;;;;;;;5112791;28;20032;-68
2021/11/14 14:17:30;;;;;;;25.05;15.63;;;;;;;;;;5112996;28;20034;-71
2021/11/14 14:19:57;;;;;;;26.13;15.75;;;;;;;;;;5112078;28;20020;-69
2021/11/14 14:22:35;;;;;;;26.90;16.75;;;;;;;;;;5113380;28;20028;-71